Latest Weather Observations for Batchelor

IDD60801

Issued at 11:35 pm CST Monday 24 November 2014 (issued every 30 minutes, with the page automatically refreshed every 10 minutes)

About weather observations | Map of weather stations | Latest weather observations for NT | Other Formats
Station Details ID: 014272 Name: BATCHELOR AIRPORT Lat: -13.05 Lon: 131.03 Height: 104.0 m
Data from the previous 72 hours. | See also: Recent months at Batchelor
Date/Time
CST
Temp
°C
App
Temp
°C
Dew
Point
Rel
Hum
%
Delta-T
°C
Wind Press
QNH
hPa
Press
MSL
hPa
Rain
since 9 am
mm
Dir
 
Spd
km/h
Gust
km/h
Spd
kts
Gust
kts
24/11:30pm 24.3 28.6 22.7 91 1.1 N 4 7 2 4 1009.1 1008.3 37.4
24/11:00pm 24.5 28.7 23.1 92 1.0 NNW 6 9 3 5 1009.8 1009.0 37.4
24/10:30pm 24.6 28.7 23.0 91 1.1 NNW 6 11 3 6 1009.6 1008.8 37.4
24/10:00pm 24.7 29.2 23.7 94 0.7 SE 6 9 3 5 1009.4 1008.6 37.4
24/09:30pm 24.3 28.4 23.3 94 0.7 SE 7 13 4 7 1009.8 1009.0 37.4
24/09:00pm 24.3 28.9 23.1 93 0.8 W 4 4 2 2 1009.9 1009.1 37.4
24/08:30pm 24.1 27.9 22.7 92 0.9 NNE 7 11 4 6 1010.2 1009.4 37.0
24/08:00pm 24.3 28.1 23.4 95 0.6 N 9 15 5 8 1009.4 1008.6 36.6
24/07:30pm 24.3 26.7 22.9 92 0.9 NE 15 20 8 11 1010.2 1009.4 35.8
24/07:00pm 25.8 30.2 24.4 92 1.0 E 9 13 5 7 1010.0 1009.2 33.0
24/06:30pm 25.4 30.7 24.4 94 0.7 WSW 4 7 2 4 1009.1 1008.3 33.0
24/06:00pm 25.3 30.1 24.4 95 0.6 WSW 7 13 4 7 1008.7 1007.9 33.0
24/05:30pm 25.1 27.8 24.2 95 0.6 W 17 30 9 16 1008.5 1007.7 31.8
24/05:00pm 25.8 28.3 23.8 89 1.4 S 17 35 9 19 1007.6 1006.8 11.4
24/04:57pm 26.3 28.7 23.6 85 1.9 S 17 35 9 19 1007.7 1006.9 6.8
24/04:30pm 31.3 33.1 21.8 57 6.5 W 15 22 8 12 1006.1 1005.3 0.8
24/04:00pm 34.6 36.9 19.8 41 9.9 W 7 17 4 9 1006.1 1005.3 0.0
24/03:30pm 36.5 37.1 17.6 32 12.3 NW 11 22 6 12 1005.8 1005.0 0.0
24/03:00pm 37.2 38.4 18.2 32 12.5 NNW 9 20 5 11 1005.8 1005.0 0.0
24/02:30pm 36.4 37.5 18.0 33 12.1 N 9 19 5 10 1006.4 1005.6 0.0
24/02:00pm 36.1 37.5 17.7 33 12.0 N 7 15 4 8 1006.7 1005.9 0.0
24/01:30pm 36.3 37.7 17.9 33 12.0 N 7 11 4 6 1007.6 1006.8 0.0
24/01:00pm 36.5 38.6 19.0 35 11.6 N 6 9 3 5 1008.8 1008.0 0.0
24/12:30pm 35.1 37.1 19.1 39 10.6 NW 7 15 4 8 1009.7 1008.9 0.0
24/12:00pm 35.7 37.5 18.7 36 11.2 ESE 7 13 4 7 1010.2 1009.4 0.0
24/11:30am 33.5 35.8 19.9 44 9.1 SSW 7 13 4 7 1010.7 1010.0 0.0
24/11:00am 33.7 35.4 19.4 43 9.5 NW 9 15 5 8 1010.9 1010.2 0.0
24/10:30am 33.0 36.0 21.2 50 8.0 NW 7 11 4 6 1011.2 1010.5 0.0
24/10:00am 32.1 34.9 20.4 50 7.8 ESE 6 11 3 6 1011.4 1010.7 0.0
24/09:30am 32.2 35.9 22.3 56 6.8 W 6 15 3 8 1011.4 1010.7 0.0
24/09:00am 30.7 34.6 22.6 62 5.6 WNW 6 9 3 5 1011.5 1010.8 0.0
24/08:30am 30.1 33.8 22.5 63 5.2 NNW 7 11 4 6 1011.4 1010.7 0.0
24/08:00am 29.1 32.7 22.1 66 4.7 N 6 7 3 4 1011.3 1010.6 0.0
24/07:30am 28.3 33.1 22.8 72 3.8 N 2 6 1 3 1011.2 1010.5 0.0
24/07:00am 27.3 32.6 23.7 81 2.5 N 2 4 1 2 1011.0 1010.3 0.0
24/06:30am 26.8 32.5 23.7 83 2.1 CALM 0 4 0 2 1010.6 1009.9 0.0
24/06:00am 26.7 31.4 23.4 82 2.3 N 4 6 2 3 1010.2 1009.4 0.0
24/05:30am 26.5 31.2 23.4 83 2.1 NW 4 6 2 3 1009.9 1009.1 0.0
24/05:00am 26.5 31.1 23.2 82 2.3 NW 4 6 2 3 1009.5 1008.7 0.0
24/04:30am 26.8 31.2 22.8 79 2.7 W 4 4 2 2 1009.5 1008.7 0.0
24/04:00am 27.2 32.1 23.0 78 2.9 W 2 4 1 2 1009.6 1008.8 0.0
24/03:30am 27.5 32.0 22.9 76 3.1 W 4 6 2 3 1009.6 1008.8 0.0
24/03:00am 27.7 32.2 22.9 75 3.3 W 4 6 2 3 1009.8 1009.0 0.0
24/02:30am 27.8 32.1 22.7 74 3.5 WSW 4 6 2 3 1009.8 1009.0 0.0
24/02:00am 27.9 32.3 22.8 74 3.5 W 4 7 2 4 1010.0 1009.2 0.0
24/01:30am 27.8 32.1 22.7 74 3.5 WNW 4 6 2 3 1010.1 1009.3 0.0
24/01:00am 27.9 32.2 22.6 73 3.6 WNW 4 4 2 2 1010.4 1009.7 0.0
24/12:30am 28.2 31.8 22.4 71 3.9 NW 7 11 4 6 1010.4 1009.7 0.0
24/12:00am 28.6 32.4 22.8 71 4.0 NNW 7 13 4 7 1010.2 1009.4 0.0
 
Date/Time
CST
Temp
°C
App
Temp
°C
Dew
Point
Rel
Hum
%
Delta-T
°C
Wind Press
QNH
hPa
Press
MSL
hPa
Rain
since 9 am
mm
Dir
 
Spd
km/h
Gust
km/h
Spd
kts
Gust
kts
23/11:30pm 28.4 33.2 22.9 72 3.8 WNW 2 2 1 1 1010.4 1009.7 0.0
23/11:00pm 28.5 33.1 22.5 70 4.1 WNW 2 4 1 2 1010.3 1009.6 0.0
23/10:30pm 29.0 33.2 22.5 68 4.4 WNW 4 6 2 3 1009.8 1009.0 0.0
23/10:00pm 29.4 33.7 22.6 67 4.6 W 4 6 2 3 1009.7 1008.9 0.0
23/09:30pm 29.9 34.2 22.6 65 5.0 W 4 7 2 4 1009.4 1008.6 0.0
23/09:00pm 30.6 34.4 22.7 62 5.4 W 7 11 4 6 1009.0 1008.2 0.0
23/08:30pm 31.3 34.4 22.9 61 5.8 WNW 11 17 6 9 1008.9 1008.1 0.0
23/08:00pm 31.7 34.7 22.7 59 6.2 W 11 17 6 9 1008.4 1007.6 0.0
23/07:30pm 32.3 35.5 23.0 58 6.4 W 11 20 6 11 1007.9 1007.1 0.0
23/07:00pm 33.0 36.0 22.7 54 7.1 W 11 20 6 11 1007.4 1006.6 0.0
23/06:30pm 34.4 36.5 22.5 50 8.2 W 15 22 8 12 1007.0 1006.2 0.0
23/06:00pm 36.3 38.2 21.3 41 10.3 NW 13 20 7 11 1006.7 1005.9 0.0
23/05:30pm 38.0 38.1 14.5 24 14.8 NNE 7 19 4 10 1006.1 1005.3 0.0
23/05:00pm 38.8 38.2 14.6 24 15.2 NE 11 19 6 10 1005.9 1005.1 0.0
23/04:30pm 39.0 38.8 14.7 23 15.4 E 9 17 5 9 1006.4 1005.6 0.0
23/04:00pm 37.3 36.7 14.6 26 14.2 NNE 11 19 6 10 1006.7 1005.9 0.0
23/03:30pm 39.1 39.3 14.8 23 15.4 NNE 7 17 4 9 1007.0 1006.2 0.0
23/03:00pm 38.7 38.1 14.5 24 15.2 NNE 11 22 6 12 1007.3 1006.5 0.0
23/02:30pm 38.1 38.5 16.4 27 14.0 E 9 17 5 9 1007.9 1007.1 0.0
23/02:00pm 37.5 38.4 17.5 30 13.0 NNE 9 19 5 10 1008.5 1007.7 0.0
23/01:30pm 36.8 38.6 18.4 34 12.1 SE 6 13 3 7 1008.9 1008.1 0.0
23/01:00pm 36.4 37.5 18.0 33 12.0 NNE 9 20 5 11 1009.6 1008.8 0.0
23/12:30pm 35.6 37.9 19.9 39 10.5 E 7 13 4 7 1010.3 1009.6 0.0
23/12:00pm 35.4 38.0 20.5 41 10.1 ENE 7 19 4 10 1010.8 1010.1 0.0
23/11:30am 34.4 37.5 21.1 45 9.0 N 6 9 3 5 1011.3 1010.6 0.0
23/11:00am 32.5 35.1 20.4 49 8.1 ENE 7 13 4 7 1011.7 1011.0 0.0
23/10:30am 32.5 35.7 21.7 53 7.3 N 7 15 4 8 1011.9 1011.2 0.0
23/10:00am 31.5 35.9 22.8 60 6.0 N 4 6 2 3 1012.2 1011.5 0.0
23/09:30am 30.1 34.3 22.5 63 5.2 NE 4 7 2 4 1012.2 1011.5 0.0
23/09:00am 30.1 34.1 22.8 65 5.0 N 6 9 3 5 1012.2 1011.5 1.2
23/08:30am 28.9 33.1 23.1 71 4.0 NNE 6 9 3 5 1012.3 1011.6 1.2
23/08:00am 28.4 32.6 23.5 75 3.4 N 7 9 4 5 1012.2 1011.5 1.2
23/07:30am 27.4 32.3 23.6 80 2.6 NE 4 6 2 3 1012.0 1011.3 1.2
23/07:00am 26.0 30.7 23.3 85 1.8 ENE 4 6 2 3 1011.7 1011.0 1.2
23/06:30am 25.1 29.4 23.3 90 1.2 NW 6 6 3 3 1011.2 1010.5 1.2
23/06:00am 24.8 29.5 22.7 88 1.4 NW 2 4 1 2 1010.8 1010.1 1.2
23/05:30am 24.9 30.1 22.8 88 1.4 CALM 0 0 0 0 1010.5 1009.8 1.2
23/05:00am 24.9 30.0 22.6 87 1.6 CALM 0 0 0 0 1010.3 1009.6 1.2
23/04:30am 24.8 29.5 21.9 84 1.9 CALM 0 0 0 0 1010.2 1009.4 1.2
23/04:00am 25.1 30.2 22.6 86 1.7 CALM 0 0 0 0 1010.2 1009.4 1.2
23/03:30am 25.2 30.3 22.7 86 1.7 CALM 0 0 0 0 1010.1 1009.3 1.2
23/03:00am 25.4 30.4 22.5 84 2.0 CALM 0 0 0 0 1010.0 1009.2 1.2
23/02:30am 25.7 30.6 22.4 82 2.2 CALM 0 0 0 0 1010.0 1009.2 1.2
23/02:00am 26.4 31.7 23.1 82 2.3 CALM 0 0 0 0 1010.4 1009.7 1.2
23/01:30am 26.1 31.5 23.2 84 2.0 CALM 0 0 0 0 1010.7 1010.0 1.2
23/01:00am 26.2 31.5 23.1 83 2.1 CALM 0 0 0 0 1011.0 1010.3 1.2
23/12:30am 26.4 32.0 23.5 84 2.0 CALM 0 0 0 0 1011.3 1010.6 1.2
23/12:00am 26.4 31.7 23.1 82 2.3 CALM 0 0 0 0 1011.4 1010.7 1.2
 
Date/Time
CST
Temp
°C
App
Temp
°C
Dew
Point
Rel
Hum
%
Delta-T
°C
Wind Press
QNH
hPa
Press
MSL
hPa
Rain
since 9 am
mm
Dir
 
Spd
km/h
Gust
km/h
Spd
kts
Gust
kts
22/11:30pm 26.6 31.8 22.9 80 2.5 CALM 0 0 0 0 1011.3 1010.6 1.2
22/11:00pm 27.1 32.8 23.8 82 2.3 CALM 0 0 0 0 1011.3 1010.6 1.2
22/10:30pm 26.9 32.0 22.7 78 2.9 CALM 0 0 0 0 1011.0 1010.3 1.2
22/10:00pm 27.6 33.1 23.4 78 2.9 CALM 0 4 0 2 1010.8 1010.1 1.2
22/09:30pm 27.6 32.5 23.0 76 3.1 NW 2 4 1 2 1010.5 1009.8 1.2
22/09:00pm 27.7 31.9 23.1 76 3.2 NW 6 7 3 4 1010.0 1009.2 1.2
22/08:30pm 28.0 32.4 23.4 76 3.2 NW 6 9 3 5 1009.7 1008.9 1.2
22/08:00pm 28.2 32.7 23.6 76 3.2 WNW 6 7 3 4 1009.7 1008.9 1.2
22/07:30pm 28.6 33.0 23.5 74 3.5 W 6 9 3 5 1009.5 1008.7 1.2
22/07:00pm 29.0 32.8 23.4 72 3.9 WNW 9 15 5 8 1009.1 1008.3 1.2
22/06:30pm 29.2 33.0 23.4 71 4.0 WNW 9 17 5 9 1009.0 1008.2 1.2
22/06:00pm 29.1 32.0 23.8 73 3.7 WNW 15 24 8 13 1008.7 1007.9 1.2
22/05:30pm 29.2 32.9 24.5 76 3.3 WNW 13 19 7 10 1008.6 1007.8 1.2
22/05:00pm 29.4 31.8 24.3 74 3.6 W 19 26 10 14 1007.7 1006.9 1.2
22/04:47pm 30.5 31.8 19.2 51 7.4 NNW 11 24 6 13 1007.6 1006.8 0.2
22/04:30pm 36.3 38.1 17.4 32 12.3 SE 4 6 2 3 1007.0 1006.2 0.0
22/04:00pm 36.2 37.6 17.8 33 12.0 E 7 17 4 9 1007.0 1006.2 0.0
22/03:30pm 36.6 37.0 17.2 31 12.6 E 11 17 6 9 1007.5 1006.7 0.0
22/03:00pm 36.8 37.6 17.4 32 12.6 NE 9 20 5 11 1008.1 1007.3 0.0
22/02:30pm 36.4 37.9 18.0 33 12.1 NE 7 17 4 9 1008.6 1007.8 0.0
22/02:00pm 35.7 38.1 20.0 39 10.5 E 7 15 4 8 1009.2 1008.4 0.0
22/01:30pm 34.9 37.3 19.7 41 10.1 NE 6 11 3 6 1009.8 1009.0 0.0
22/01:00pm 35.1 37.8 20.2 41 10.0 NE 6 13 3 7 1010.3 1009.6 0.0
22/12:30pm 34.4 37.2 20.4 44 9.4 E 6 11 3 6 1010.9 1010.2 0.0
22/12:00pm 33.7 36.5 21.5 49 8.3 ESE 9 15 5 8 1011.3 1010.6 0.0
22/11:30am 33.2 36.5 21.4 50 8.0 E 6 13 3 7 1011.9 1011.2 0.0
22/11:00am 33.0 36.1 21.5 50 7.8 ESE 7 11 4 6 1012.1 1011.4 0.0
22/10:30am 32.4 35.6 21.6 53 7.3 E 7 15 4 8 1012.3 1011.6 0.0
22/10:00am 32.1 35.2 21.0 52 7.5 ENE 6 11 3 6 1012.4 1011.7 0.0
22/09:30am 30.9 34.6 21.4 57 6.4 NE 4 11 2 6 1012.8 1012.0 0.0
22/09:00am 30.0 34.3 22.7 65 5.0 NW 4 7 2 4 1012.8 1012.0 1.2
22/08:30am 30.0 34.2 22.4 63 5.2 NNW 4 6 2 3 1012.5 1011.8 1.2
22/08:00am 28.8 33.1 23.7 74 3.5 ENE 7 9 4 5 1012.2 1011.5 1.2
22/07:30am 28.0 32.9 24.4 81 2.5 NNW 6 7 3 4 1011.9 1011.2 1.2
22/07:00am 26.8 32.1 23.7 83 2.1 NNW 2 4 1 2 1011.3 1010.6 1.2
22/06:30am 26.2 31.2 23.9 87 1.6 NNW 4 4 2 2 1010.8 1010.1 1.2
22/06:00am 25.9 30.8 23.6 87 1.6 NNW 4 6 2 3 1010.5 1009.8 1.2
22/05:30am 25.8 31.4 23.5 87 1.6 CALM 0 0 0 0 1010.1 1009.3 1.2
22/05:00am 25.9 31.4 23.4 86 1.7 CALM 0 0 0 0 1009.9 1009.1 1.2
22/04:30am 26.1 31.3 22.8 82 2.2 CALM 0 0 0 0 1009.8 1009.0 1.2
22/04:00am 26.1 31.4 23.0 83 2.1 CALM 0 0 0 0 1009.4 1008.6 1.2
22/03:30am 26.4 31.8 23.3 83 2.1 CALM 0 0 0 0 1009.2 1008.4 1.2
22/03:00am 26.3 31.2 23.0 82 2.3 NNW 2 4 1 2 1009.3 1008.5 1.2
22/02:30am 26.3 31.8 23.4 84 2.0 CALM 0 0 0 0 1009.4 1008.6 1.2
22/02:00am 26.4 31.6 22.9 81 2.4 CALM 0 0 0 0 1009.5 1008.7 1.2
22/01:30am 26.9 31.6 22.7 78 2.9 NNW 2 2 1 1 1009.6 1008.8 1.2
22/01:00am 27.1 31.6 22.9 78 2.9 NW 4 6 2 3 1009.7 1008.9 1.2
22/12:30am 27.1 31.2 22.9 78 2.9 NNW 6 9 3 5 1010.1 1009.3 1.2
22/12:00am 27.4 31.5 23.0 77 3.0 WNW 6 7 3 4 1010.5 1009.8 1.2

Other Formats:

Comma delimited format used in spreadsheet applications
http://www.bom.gov.au/fwo/IDD60801/IDD60801.94125.axf

JavaScript Object Notation format (JSON) in row-major order
http://www.bom.gov.au/fwo/IDD60801/IDD60801.94125.json